Time;durP1;ratioP1;P1;durP2;ratioP2;P2;SDS_P1;SDS_P2;PMS_P1;PMS_P2;Temp;Humidity;BMP_temperature;BMP_pressure;BME280_temperature;BME280_humidity;BME280_pressure;Samples;Min_cycle;Max_cycle;Signal;HPM_P1;HPM_P2
2023/01/14 00:00:05;;;;;;;5.32;1.63;;;;;;;;;;5050485;28;20456;-80
2023/01/14 00:02:33;;;;;;;3.60;1.30;;;;;;;;;;5040761;28;20398;-80
2023/01/14 00:04:59;;;;;;;2.28;1.25;;;;;;;;;;5034038;28;20508;-79
2023/01/14 00:07:25;;;;;;;4.80;1.52;;;;;;;;;;5032972;28;20466;-79
2023/01/14 00:09:51;;;;;;;3.35;2.20;;;;;;;;;;5032072;28;20474;-78
2023/01/14 00:12:19;;;;;;;5.23;2.13;;;;;;;;;;5036748;28;20410;-79
2023/01/14 00:14:45;;;;;;;3.33;1.50;;;;;;;;;;5038234;28;20401;-79
2023/01/14 00:17:11;;;;;;;4.57;1.57;;;;;;;;;;5035495;28;20805;-79
2023/01/14 00:19:38;;;;;;;4.20;1.30;;;;;;;;;;5039764;28;20387;-81
2023/01/14 00:22:04;;;;;;;2.53;1.15;;;;;;;;;;5039783;28;20403;-79
2023/01/14 00:24:30;;;;;;;3.03;1.10;;;;;;;;;;5018820;28;20862;-79
2023/01/14 00:26:57;;;;;;;3.63;1.05;;;;;;;;;;5034456;28;20470;-80
2023/01/14 00:29:24;;;;;;;3.17;1.20;;;;;;;;;;5047947;28;20496;-79
2023/01/14 00:31:50;;;;;;;3.53;1.23;;;;;;;;;;5033309;28;20407;-81
2023/01/14 00:34:17;;;;;;;4.03;1.38;;;;;;;;;;5033950;28;20895;-81
2023/01/14 00:36:44;;;;;;;2.70;1.10;;;;;;;;;;5031725;28;20864;-80
2023/01/14 00:39:10;;;;;;;4.53;1.50;;;;;;;;;;5041304;28;20389;-80
2023/01/14 00:41:36;;;;;;;5.53;1.40;;;;;;;;;;5043451;28;20382;-79
2023/01/14 00:44:02;;;;;;;4.50;1.17;;;;;;;;;;5042829;28;20381;-80
2023/01/14 00:46:30;;;;;;;3.53;1.25;;;;;;;;;;5043718;28;20876;-81
2023/01/14 00:48:58;;;;;;;5.25;1.73;;;;;;;;;;5049508;28;20404;-79
2023/01/14 00:51:24;;;;;;;3.72;1.40;;;;;;;;;;5043060;28;20771;-80
2023/01/14 00:53:51;;;;;;;4.32;1.50;;;;;;;;;;5039927;28;20892;-81
2023/01/14 00:56:18;;;;;;;6.75;1.58;;;;;;;;;;5040853;28;20372;-81
2023/01/14 00:58:44;;;;;;;5.03;1.48;;;;;;;;;;5035155;28;20386;-80
2023/01/14 01:01:10;;;;;;;6.03;1.48;;;;;;;;;;5043867;28;20382;-80
2023/01/14 01:03:40;;;;;;;6.77;1.30;;;;;;;;;;5033470;28;20390;-80
2023/01/14 01:06:07;;;;;;;5.75;1.75;;;;;;;;;;5033072;28;20383;-80
2023/01/14 01:08:33;;;;;;;8.68;1.75;;;;;;;;;;5032592;28;20521;-79
2023/01/14 01:10:59;;;;;;;6.00;1.73;;;;;;;;;;5031206;28;20406;-79
2023/01/14 01:13:25;;;;;;;6.32;1.67;;;;;;;;;;5041536;28;20379;-79
2023/01/14 01:15:52;;;;;;;4.80;1.40;;;;;;;;;;5034168;28;20543;-81
2023/01/14 01:18:18;;;;;;;5.10;1.60;;;;;;;;;;5032025;28;20386;-80
2023/01/14 01:20:44;;;;;;;6.88;1.80;;;;;;;;;;5033932;28;20390;-80
2023/01/14 01:23:13;;;;;;;5.07;1.70;;;;;;;;;;5045871;28;20390;-80
2023/01/14 01:25:39;;;;;;;6.65;1.90;;;;;;;;;;5050482;28;20376;-80
2023/01/14 01:28:05;;;;;;;5.70;1.60;;;;;;;;;;5033564;28;20424;-80
2023/01/14 01:30:31;;;;;;;5.63;1.67;;;;;;;;;;5035793;28;20460;-81
2023/01/14 01:32:58;;;;;;;5.75;1.52;;;;;;;;;;5042432;28;20417;-80
2023/01/14 01:35:24;;;;;;;5.00;1.60;;;;;;;;;;5032054;28;20462;-79
2023/01/14 01:37:51;;;;;;;5.22;1.58;;;;;;;;;;5034977;28;20401;-81
2023/01/14 01:40:17;;;;;;;5.68;1.85;;;;;;;;;;5049664;28;20973;-81
2023/01/14 01:42:55;;;;;;;5.32;1.65;;;;;;;;;;5044989;28;20391;-80
2023/01/14 01:45:25;;;;;;;5.90;1.40;;;;;;;;;;5044573;28;20389;-80
2023/01/14 01:47:54;;;;;;;6.45;1.70;;;;;;;;;;5039695;28;20479;-79
2023/01/14 01:50:20;;;;;;;6.45;1.80;;;;;;;;;;5035902;28;20463;-81
2023/01/14 01:52:46;;;;;;;5.20;1.63;;;;;;;;;;5036239;28;20438;-80
2023/01/14 01:55:12;;;;;;;6.22;1.92;;;;;;;;;;5044563;28;20466;-81
2023/01/14 01:57:39;;;;;;;7.22;1.98;;;;;;;;;;5051628;28;20373;-80
2023/01/14 02:00:07;;;;;;;5.50;1.77;;;;;;;;;;5049399;28;20388;-80
2023/01/14 02:02:33;;;;;;;7.20;2.10;;;;;;;;;;5043774;28;20432;-81
2023/01/14 02:04:59;;;;;;;5.90;1.63;;;;;;;;;;5049752;28;20415;-79
2023/01/14 02:07:25;;;;;;;6.60;2.08;;;;;;;;;;5035997;28;20899;-79
2023/01/14 02:10:03;;;;;;;5.50;1.92;;;;;;;;;;5036200;28;20392;-79
2023/01/14 02:12:47;;;;;;;8.80;2.38;;;;;;;;;;5055787;28;20444;-79
2023/01/14 02:15:13;;;;;;;5.57;1.80;;;;;;;;;;5074340;28;20812;-79
2023/01/14 02:17:58;;;;;;;5.30;1.60;;;;;;;;;;5074567;28;20408;-79
2023/01/14 02:20:27;;;;;;;6.43;1.70;;;;;;;;;;5048168;28;20449;-79
2023/01/14 02:22:59;;;;;;;4.00;1.53;;;;;;;;;;5062648;28;20434;-79
2023/01/14 02:25:44;;;;;;;5.40;1.42;;;;;;;;;;5074358;28;20406;-79
2023/01/14 02:28:29;;;;;;;7.75;1.90;;;;;;;;;;5073978;28;20443;-79
2023/01/14 02:31:09;;;;;;;6.82;2.25;;;;;;;;;;5055991;28;20433;-79
2023/01/14 02:33:37;;;;;;;6.03;1.95;;;;;;;;;;5058268;28;20533;-79
2023/01/14 02:36:16;;;;;;;6.28;1.80;;;;;;;;;;5055615;28;20474;-79
2023/01/14 02:38:51;;;;;;;6.63;1.50;;;;;;;;;;5073874;28;20591;-79
2023/01/14 02:44:07;;;;;;;4.43;1.58;;;;;;;;;;5078608;28;20417;-79
2023/01/14 02:44:16;;;;;;;5.25;1.70;;;;;;;;;;5087974;28;20384;-79
2023/01/14 02:47:02;;;;;;;4.18;1.58;;;;;;;;;;5077762;28;20380;-79
2023/01/14 02:49:29;;;;;;;6.30;1.90;;;;;;;;;;5072468;28;20387;-79
2023/01/14 02:51:57;;;;;;;5.03;1.88;;;;;;;;;;5073874;28;20414;-79
2023/01/14 02:54:23;;;;;;;4.95;1.50;;;;;;;;;;5070197;28;20384;-79
2023/01/14 02:56:50;;;;;;;6.13;2.05;;;;;;;;;;5053769;28;20373;-79
2023/01/14 02:59:19;;;;;;;5.57;1.80;;;;;;;;;;5056549;28;20393;-79
2023/01/14 03:01:51;;;;;;;5.72;1.83;;;;;;;;;;5053409;28;20914;-79
2023/01/14 03:04:23;;;;;;;6.07;1.85;;;;;;;;;;5058750;28;20865;-79
2023/01/14 03:07:08;;;;;;;5.93;1.50;;;;;;;;;;5073422;28;20571;-79
2023/01/14 03:09:40;;;;;;;5.60;1.50;;;;;;;;;;5073417;28;20426;-79
2023/01/14 03:12:09;;;;;;;5.83;1.60;;;;;;;;;;5073311;28;20959;-79
2023/01/14 03:14:58;;;;;;;4.75;1.38;;;;;;;;;;5060147;28;20381;-79
2023/01/14 03:17:35;;;;;;;4.80;1.43;;;;;;;;;;5033169;28;20392;-80
2023/01/14 03:20:04;;;;;;;4.20;1.67;;;;;;;;;;5055592;28;20414;-79
2023/01/14 03:22:31;;;;;;;4.10;1.60;;;;;;;;;;5073291;28;20467;-79
2023/01/14 03:24:58;;;;;;;4.35;1.35;;;;;;;;;;5055282;28;20758;-79
2023/01/14 03:27:25;;;;;;;5.50;1.80;;;;;;;;;;5055165;28;20455;-79
2023/01/14 03:29:54;;;;;;;4.50;1.60;;;;;;;;;;5072918;28;20742;-79
2023/01/14 03:32:54;;;;;;;5.05;1.70;;;;;;;;;;5072908;28;20395;-79
2023/01/14 03:35:20;;;;;;;5.63;1.63;;;;;;;;;;4989078;28;20395;-79
2023/01/14 03:37:50;;;;;;;4.93;1.65;;;;;;;;;;5070632;28;20376;-79
2023/01/14 03:40:17;;;;;;;6.45;2.10;;;;;;;;;;5072854;28;20531;-79
2023/01/14 03:42:45;;;;;;;5.30;1.70;;;;;;;;;;5068381;28;20498;-79
2023/01/14 03:45:15;;;;;;;5.53;1.75;;;;;;;;;;5062707;28;20482;-79
2023/01/14 03:47:42;;;;;;;4.90;1.65;;;;;;;;;;5072659;28;20392;-79
2023/01/14 03:50:12;;;;;;;4.07;1.95;;;;;;;;;;5072673;28;20917;-79
2023/01/14 03:53:01;;;;;;;5.15;1.88;;;;;;;;;;5072543;28;20408;-79
2023/01/14 03:55:36;;;;;;;5.35;2.20;;;;;;;;;;5072571;28;20380;-79
2023/01/14 03:58:05;;;;;;;7.50;3.05;;;;;;;;;;5065116;28;20416;-79
2023/01/14 04:00:40;;;;;;;13.65;9.90;;;;;;;;;;5037788;28;20473;-79
2023/01/14 04:03:09;;;;;;;9.32;5.80;;;;;;;;;;5065103;28;20502;-79
2023/01/14 04:05:35;;;;;;;7.82;5.10;;;;;;;;;;5058086;28;20568;-79
2023/01/14 04:08:01;;;;;;;5.25;2.78;;;;;;;;;;5040558;28;20401;-79
2023/01/14 04:10:27;;;;;;;4.07;2.30;;;;;;;;;;5062643;28;20387;-79
2023/01/14 04:15:37;;;;;;;3.97;2.20;;;;;;;;;;5072279;28;20386;-79
2023/01/14 04:18:03;;;;;;;4.22;1.75;;;;;;;;;;5050664;28;20859;-79
2023/01/14 04:20:31;;;;;;;5.18;1.80;;;;;;;;;;5068583;28;20375;-79
2023/01/14 04:22:57;;;;;;;4.22;1.95;;;;;;;;;;5072108;28;20856;-79
2023/01/14 04:25:23;;;;;;;5.65;2.20;;;;;;;;;;5071965;28;20388;-79
2023/01/14 04:27:49;;;;;;;5.68;1.85;;;;;;;;;;5054055;28;20796;-79
2023/01/14 04:30:15;;;;;;;4.50;1.63;;;;;;;;;;5068428;28;20413;-79
2023/01/14 04:32:41;;;;;;;4.15;1.75;;;;;;;;;;5056724;28;20403;-79
2023/01/14 04:35:07;;;;;;;2.83;1.30;;;;;;;;;;5072011;28;20372;-79
2023/01/14 04:37:33;;;;;;;3.33;1.60;;;;;;;;;;5071880;28;20445;-79
2023/01/14 04:39:59;;;;;;;4.88;1.48;;;;;;;;;;5053926;28;20853;-79
2023/01/14 04:42:28;;;;;;;2.10;1.20;;;;;;;;;;5071819;28;20376;-79
2023/01/14 04:44:59;;;;;;;4.18;1.40;;;;;;;;;;5071922;28;20477;-79
2023/01/14 04:47:26;;;;;;;2.80;1.30;;;;;;;;;;5053816;28;20809;-79
2023/01/14 04:49:52;;;;;;;6.03;1.70;;;;;;;;;;5071834;28;20413;-79
2023/01/14 04:52:18;;;;;;;3.58;1.52;;;;;;;;;;5071535;28;20404;-79
2023/01/14 04:54:44;;;;;;;5.45;2.00;;;;;;;;;;5071730;28;20406;-79
2023/01/14 04:57:11;;;;;;;4.63;2.08;;;;;;;;;;5071645;28;20380;-79
2023/01/14 04:59:37;;;;;;;5.03;2.10;;;;;;;;;;5071532;28;20380;-79
2023/01/14 05:02:03;;;;;;;5.10;2.37;;;;;;;;;;5054391;28;20868;-79
2023/01/14 05:04:30;;;;;;;7.60;2.05;;;;;;;;;;5059604;28;20382;-79
2023/01/14 05:06:57;;;;;;;5.47;1.83;;;;;;;;;;5058383;28;20453;-79
2023/01/14 05:09:23;;;;;;;5.68;1.92;;;;;;;;;;5054864;28;20385;-79
2023/01/14 05:11:49;;;;;;;5.32;1.80;;;;;;;;;;5062920;28;20434;-79
2023/01/14 05:14:15;;;;;;;6.97;2.03;;;;;;;;;;5052825;28;20415;-79
2023/01/14 05:16:41;;;;;;;6.07;2.13;;;;;;;;;;5050944;28;20764;-79
2023/01/14 05:19:07;;;;;;;6.32;1.60;;;;;;;;;;5075550;28;20387;-79
2023/01/14 05:21:33;;;;;;;6.75;1.27;;;;;;;;;;5075470;28;20884;-79
2023/01/14 05:23:59;;;;;;;6.38;1.80;;;;;;;;;;5075323;28;20426;-79
2023/01/14 05:26:25;;;;;;;4.93;1.73;;;;;;;;;;5051210;28;20402;-79
2023/01/14 05:28:51;;;;;;;6.05;1.67;;;;;;;;;;5050841;28;20399;-81
2023/01/14 05:31:17;;;;;;;8.43;2.20;;;;;;;;;;5066276;28;20384;-81
2023/01/14 05:33:43;;;;;;;6.80;1.65;;;;;;;;;;5056705;28;20383;-81
2023/01/14 05:36:09;;;;;;;6.43;1.88;;;;;;;;;;5072977;28;20379;-80
2023/01/14 05:38:35;;;;;;;6.22;1.60;;;;;;;;;;5052938;28;20428;-81
2023/01/14 05:41:01;;;;;;;7.07;2.13;;;;;;;;;;5071757;28;20412;-80
2023/01/14 05:46:16;;;;;;;4.18;1.33;;;;;;;;;;5075174;28;21023;-80
2023/01/14 05:48:42;;;;;;;5.33;1.50;;;;;;;;;;5047475;28;20489;-81
2023/01/14 05:51:10;;;;;;;5.53;1.75;;;;;;;;;;5043365;28;20480;-81
2023/01/14 05:53:36;;;;;;;6.72;1.65;;;;;;;;;;5045843;28;20387;-81
2023/01/14 05:56:02;;;;;;;6.28;1.50;;;;;;;;;;5035517;28;20414;-79
2023/01/14 05:58:28;;;;;;;5.70;1.45;;;;;;;;;;5056422;28;20372;-79
2023/01/14 06:06:28;;;;;;;4.15;1.70;;;;;;;;;;5042238;28;20439;-79
2023/01/14 06:08:58;;;;;;;6.10;1.42;;;;;;;;;;5056491;28;20389;-79
2023/01/14 06:11:25;;;;;;;6.10;1.47;;;;;;;;;;5064015;28;20410;-80
2023/01/14 06:13:53;;;;;;;7.57;1.92;;;;;;;;;;5052762;28;20381;-79
2023/01/14 06:16:19;;;;;;;6.20;2.00;;;;;;;;;;5053383;28;20957;-80
2023/01/14 06:18:45;;;;;;;6.43;2.17;;;;;;;;;;5042310;28;20375;-80
2023/01/14 06:21:21;;;;;;;8.02;3.88;;;;;;;;;;5036009;28;20387;-79
2023/01/14 06:23:50;;;;;;;6.70;3.55;;;;;;;;;;5049534;28;20413;-81
2023/01/14 06:26:17;;;;;;;5.15;2.13;;;;;;;;;;5021549;28;20884;-80
2023/01/14 06:28:44;;;;;;;5.13;1.93;;;;;;;;;;5040843;28;20439;-80
2023/01/14 06:31:11;;;;;;;4.95;1.88;;;;;;;;;;5040064;28;20480;-80
2023/01/14 06:33:37;;;;;;;4.70;1.70;;;;;;;;;;5035671;28;20458;-82
2023/01/14 06:36:03;;;;;;;3.65;2.00;;;;;;;;;;5037295;28;20391;-80
2023/01/14 06:38:29;;;;;;;4.47;1.60;;;;;;;;;;5034859;28;20395;-80
2023/01/14 06:40:58;;;;;;;3.78;1.83;;;;;;;;;;5020514;28;20387;-82
2023/01/14 06:43:24;;;;;;;3.88;1.60;;;;;;;;;;5045783;28;20420;-81
2023/01/14 06:45:53;;;;;;;4.30;1.52;;;;;;;;;;5039788;28;20934;-81
2023/01/14 06:48:19;;;;;;;3.80;1.40;;;;;;;;;;5036909;28;20383;-80
2023/01/14 06:50:45;;;;;;;5.47;1.63;;;;;;;;;;5035601;28;20387;-80
2023/01/14 06:53:11;;;;;;;3.88;1.90;;;;;;;;;;5037143;28;20426;-79
2023/01/14 06:55:37;;;;;;;5.15;1.80;;;;;;;;;;5033887;28;20668;-81
2023/01/14 06:58:03;;;;;;;4.13;1.70;;;;;;;;;;5037264;28;20459;-81
2023/01/14 07:00:29;;;;;;;4.22;2.30;;;;;;;;;;5046809;28;20943;-80
2023/01/14 07:02:55;;;;;;;4.47;1.90;;;;;;;;;;5065024;28;20387;-80
2023/01/14 07:05:22;;;;;;;3.63;1.40;;;;;;;;;;5073625;28;20392;-80
2023/01/14 07:07:48;;;;;;;5.35;2.20;;;;;;;;;;5070967;28;20540;-80
2023/01/14 07:10:15;;;;;;;3.53;1.50;;;;;;;;;;5063420;28;20471;-81
2023/01/14 07:12:48;;;;;;;3.15;1.60;;;;;;;;;;5059055;28;20416;-81
2023/01/14 07:15:15;;;;;;;3.75;1.65;;;;;;;;;;5046227;28;20379;-81
2023/01/14 07:17:41;;;;;;;3.75;1.38;;;;;;;;;;5047837;28;20388;-81
2023/01/14 07:20:08;;;;;;;2.72;1.45;;;;;;;;;;5048256;28;20399;-81
2023/01/14 07:22:34;;;;;;;4.18;2.00;;;;;;;;;;5053486;28;20482;-81
2023/01/14 07:25:01;;;;;;;5.53;1.90;;;;;;;;;;5028474;28;20971;-81
2023/01/14 07:27:27;;;;;;;4.67;1.70;;;;;;;;;;5035523;28;20422;-81
2023/01/14 07:29:53;;;;;;;5.00;2.28;;;;;;;;;;5036975;28;20514;-81
2023/01/14 07:32:19;;;;;;;4.18;1.70;;;;;;;;;;5034143;28;20510;-81
2023/01/14 07:34:45;;;;;;;5.22;2.00;;;;;;;;;;5050939;28;20394;-80
2023/01/14 07:37:11;;;;;;;3.63;1.73;;;;;;;;;;5045375;28;20418;-81
2023/01/14 07:39:37;;;;;;;4.50;1.70;;;;;;;;;;5044864;28;20396;-81
2023/01/14 07:42:03;;;;;;;4.00;1.40;;;;;;;;;;5065072;28;20922;-81
2023/01/14 07:44:29;;;;;;;5.45;1.90;;;;;;;;;;5059970;28;20386;-81
2023/01/14 07:46:55;;;;;;;3.97;1.30;;;;;;;;;;5072860;28;20386;-82
2023/01/14 07:49:22;;;;;;;5.13;1.63;;;;;;;;;;5032553;28;20443;-81
2023/01/14 07:51:48;;;;;;;6.38;3.60;;;;;;;;;;5045939;28;20405;-82
2023/01/14 07:54:14;;;;;;;7.63;3.50;;;;;;;;;;5047539;28;20375;-82
2023/01/14 07:56:40;;;;;;;3.67;1.73;;;;;;;;;;5057882;28;20398;-82
2023/01/14 07:59:07;;;;;;;5.10;2.90;;;;;;;;;;5072574;28;20372;-82
2023/01/14 08:01:33;;;;;;;6.68;3.28;;;;;;;;;;5061682;28;20387;-82
2023/01/14 08:03:59;;;;;;;5.80;2.95;;;;;;;;;;5072332;28;20383;-83
2023/01/14 08:06:25;;;;;;;4.67;2.40;;;;;;;;;;5049605;28;20396;-80
2023/01/14 08:08:51;;;;;;;5.32;2.15;;;;;;;;;;5028680;28;20416;-80
2023/01/14 08:11:17;;;;;;;4.38;2.50;;;;;;;;;;5052346;28;20875;-79
2023/01/14 08:13:43;;;;;;;4.95;2.50;;;;;;;;;;5038633;28;20395;-79
2023/01/14 08:16:10;;;;;;;5.50;2.63;;;;;;;;;;5050919;28;20385;-79
2023/01/14 08:18:38;;;;;;;4.65;2.70;;;;;;;;;;5052148;28;20511;-79
2023/01/14 08:21:06;;;;;;;6.05;2.40;;;;;;;;;;5051959;28;20420;-80
2023/01/14 08:23:32;;;;;;;6.20;2.50;;;;;;;;;;5063121;28;20391;-80
2023/01/14 08:26:02;;;;;;;4.28;2.25;;;;;;;;;;5064389;28;21053;-81
2023/01/14 08:28:28;;;;;;;6.07;2.40;;;;;;;;;;5039618;28;20406;-81
2023/01/14 08:31:21;;;;;;;7.20;2.97;;;;;;;;;;5032353;28;20391;-81
2023/01/14 08:33:47;;;;;;;6.15;2.70;;;;;;;;;;5039581;28;20905;-80
2023/01/14 08:36:14;;;;;;;7.90;3.85;;;;;;;;;;5047640;28;20411;-81
2023/01/14 08:38:42;;;;;;;8.45;4.10;;;;;;;;;;5038077;28;20386;-81
2023/01/14 08:41:12;;;;;;;8.65;4.88;;;;;;;;;;5032722;28;20386;-81
2023/01/14 08:43:38;;;;;;;11.52;6.47;;;;;;;;;;5024045;28;20537;-82
2023/01/14 08:46:05;;;;;;;8.20;5.10;;;;;;;;;;5065514;28;20387;-82
2023/01/14 08:48:31;;;;;;;9.88;6.60;;;;;;;;;;5071776;28;20376;-81
2023/01/14 08:51:01;;;;;;;8.85;5.45;;;;;;;;;;5071556;28;20391;-80
2023/01/14 08:53:28;;;;;;;12.05;8.27;;;;;;;;;;5071627;28;20463;-82
2023/01/14 08:55:58;;;;;;;8.97;6.33;;;;;;;;;;5071666;28;20376;-82
2023/01/14 08:58:24;;;;;;;8.38;5.78;;;;;;;;;;5057634;28;20733;-83
2023/01/14 09:00:54;;;;;;;8.75;4.40;;;;;;;;;;5056844;28;20805;-82
2023/01/14 09:03:20;;;;;;;7.80;3.22;;;;;;;;;;5067712;28;20454;-82
2023/01/14 09:05:46;;;;;;;5.65;3.08;;;;;;;;;;5065265;28;20385;-84
2023/01/14 09:19:13;;;;;;;6.95;3.22;;;;;;;;;;5052900;28;20367;-86
2023/01/14 09:21:39;;;;;;;7.55;3.55;;;;;;;;;;5039817;28;20440;-86
2023/01/14 09:24:06;;;;;;;8.23;4.38;;;;;;;;;;5055281;28;20387;-85
2023/01/14 09:26:32;;;;;;;6.80;3.10;;;;;;;;;;5062963;28;20374;-85
2023/01/14 09:28:58;;;;;;;5.47;3.03;;;;;;;;;;5077163;28;20957;-85
2023/01/14 09:31:24;;;;;;;5.68;3.10;;;;;;;;;;5083820;28;20355;-85
2023/01/14 09:33:50;;;;;;;6.80;3.17;;;;;;;;;;5076682;28;20376;-85
2023/01/14 09:36:16;;;;;;;7.68;3.47;;;;;;;;;;5088326;28;20390;-83
2023/01/14 09:38:42;;;;;;;5.63;3.40;;;;;;;;;;5069325;28;20391;-83
2023/01/14 09:41:18;;;;;;;7.03;3.50;;;;;;;;;;5068582;28;20379;-83
2023/01/14 09:43:44;;;;;;;6.57;3.40;;;;;;;;;;5069427;28;20376;-84
2023/01/14 09:46:11;;;;;;;7.40;3.30;;;;;;;;;;5069980;28;20382;-85
2023/01/14 09:48:37;;;;;;;5.88;3.17;;;;;;;;;;5070047;28;20383;-84
2023/01/14 09:51:16;;;;;;;6.97;3.20;;;;;;;;;;5070327;28;20398;-84
2023/01/14 09:53:48;;;;;;;5.63;3.28;;;;;;;;;;5052661;28;20388;-84
2023/01/14 09:56:20;;;;;;;6.50;3.60;;;;;;;;;;5067380;28;20375;-84
2023/01/14 09:58:54;;;;;;;7.28;3.42;;;;;;;;;;5054430;28;20464;-84
2023/01/14 10:01:26;;;;;;;6.40;3.47;;;;;;;;;;5054500;28;20399;-84
2023/01/14 10:03:59;;;;;;;5.72;3.40;;;;;;;;;;5075090;28;20454;-84
2023/01/14 10:06:25;;;;;;;7.82;4.38;;;;;;;;;;5074841;28;20374;-84
2023/01/14 10:08:57;;;;;;;8.35;4.50;;;;;;;;;;5074952;28;20463;-84
2023/01/14 10:11:24;;;;;;;7.20;4.32;;;;;;;;;;5074589;28;20767;-84
2023/01/14 10:13:58;;;;;;;7.63;5.22;;;;;;;;;;5056746;28;20741;-83
2023/01/14 10:16:27;;;;;;;10.27;6.05;;;;;;;;;;5074795;28;20425;-83
2023/01/14 10:18:56;;;;;;;9.63;5.50;;;;;;;;;;5073535;28;20379;-83
2023/01/14 10:21:27;;;;;;;9.38;5.60;;;;;;;;;;5063608;28;20380;-84
2023/01/14 10:23:53;;;;;;;7.63;4.80;;;;;;;;;;5074640;28;20429;-83
2023/01/14 10:26:20;;;;;;;8.63;4.72;;;;;;;;;;5056460;28;20919;-83
2023/01/14 10:28:51;;;;;;;8.75;4.30;;;;;;;;;;5062868;28;20412;-84
2023/01/14 10:31:23;;;;;;;7.67;3.90;;;;;;;;;;5043530;28;20749;-84
2023/01/14 10:33:49;;;;;;;6.78;3.30;;;;;;;;;;5074414;28;20392;-84
2023/01/14 10:36:19;;;;;;;5.63;2.13;;;;;;;;;;5074349;28;20452;-84
2023/01/14 10:38:46;;;;;;;7.28;2.30;;;;;;;;;;5074380;28;20426;-84
2023/01/14 10:41:12;;;;;;;5.10;2.03;;;;;;;;;;5074118;28;20387;-84
2023/01/14 10:43:42;;;;;;;5.45;2.10;;;;;;;;;;5074188;28;20395;-84
2023/01/14 10:46:13;;;;;;;4.47;1.90;;;;;;;;;;5070767;28;20404;-84
2023/01/14 10:48:59;;;;;;;4.38;1.42;;;;;;;;;;5064480;28;20391;-83
2023/01/14 10:51:34;;;;;;;4.22;2.03;;;;;;;;;;5073931;28;20473;-84
2023/01/14 10:54:10;;;;;;;5.25;2.38;;;;;;;;;;5056109;28;20387;-84
2023/01/14 10:56:36;;;;;;;6.18;1.92;;;;;;;;;;5073742;28;20469;-84
2023/01/14 10:59:02;;;;;;;6.32;2.00;;;;;;;;;;5074090;28;20873;-84
2023/01/14 11:01:28;;;;;;;6.75;2.22;;;;;;;;;;5056504;28;20423;-84
2023/01/14 11:03:55;;;;;;;7.43;2.15;;;;;;;;;;5073833;28;20460;-84
2023/01/14 11:06:20;;;;;;;6.03;2.23;;;;;;;;;;5055986;28;20404;-84
2023/01/14 11:08:46;;;;;;;6.32;2.50;;;;;;;;;;5054735;28;20399;-83
2023/01/14 11:11:17;;;;;;;7.07;2.83;;;;;;;;;;5067676;28;20406;-83
2023/01/14 11:13:44;;;;;;;4.80;2.25;;;;;;;;;;5073529;28;20531;-84
2023/01/14 11:16:25;;;;;;;5.55;2.78;;;;;;;;;;5073589;28;20382;-84
2023/01/14 11:19:00;;;;;;;6.93;2.38;;;;;;;;;;5073642;28;20407;-83
2023/01/14 11:21:27;;;;;;;5.15;2.13;;;;;;;;;;5073497;28;20440;-84
2023/01/14 11:23:56;;;;;;;4.85;2.15;;;;;;;;;;5073366;28;20737;-85
2023/01/14 11:26:24;;;;;;;5.55;2.28;;;;;;;;;;5072972;28;20411;-85
2023/01/14 11:28:52;;;;;;;5.50;1.83;;;;;;;;;;5073051;28;20428;-85
2023/01/14 11:31:27;;;;;;;6.72;2.30;;;;;;;;;;5073223;28;20380;-86
2023/01/14 11:33:53;;;;;;;4.18;1.90;;;;;;;;;;5073107;28;20403;-86
2023/01/14 11:36:27;;;;;;;6.22;2.08;;;;;;;;;;5072872;28;20418;-86
2023/01/14 11:38:58;;;;;;;5.35;1.92;;;;;;;;;;5073147;28;20388;-85
2023/01/14 11:41:32;;;;;;;3.78;1.73;;;;;;;;;;5073046;28;20372;-84
2023/01/14 11:44:02;;;;;;;5.43;1.92;;;;;;;;;;5056708;28;20442;-84
2023/01/14 11:46:28;;;;;;;3.75;1.92;;;;;;;;;;5045543;28;20844;-86
2023/01/14 11:49:21;;;;;;;5.38;2.22;;;;;;;;;;5072517;28;20368;-84
2023/01/14 11:52:00;;;;;;;5.28;1.95;;;;;;;;;;5050402;28;20403;-85
2023/01/14 11:54:35;;;;;;;4.63;1.95;;;;;;;;;;5058142;28;20387;-84
2023/01/14 11:57:01;;;;;;;5.47;2.10;;;;;;;;;;5059117;28;20521;-86
2023/01/14 11:59:32;;;;;;;7.32;2.35;;;;;;;;;;5033755;28;20714;-85
2023/01/14 12:01:58;;;;;;;6.55;2.60;;;;;;;;;;5038230;28;20792;-81
2023/01/14 12:04:28;;;;;;;5.95;2.20;;;;;;;;;;5029243;28;20399;-82
2023/01/14 12:07:08;;;;;;;6.68;2.20;;;;;;;;;;5051334;28;20385;-81
2023/01/14 12:09:43;;;;;;;6.00;2.08;;;;;;;;;;5048148;28;20836;-81
2023/01/14 12:12:09;;;;;;;5.88;2.20;;;;;;;;;;5072103;28;20411;-80
2023/01/14 12:17:29;;;;;;;4.85;2.05;;;;;;;;;;5072447;28;20410;-81
2023/01/14 12:20:14;;;;;;;4.70;2.37;;;;;;;;;;5071963;28;20403;-80
2023/01/14 12:22:52;;;;;;;3.85;1.92;;;;;;;;;;5072465;28;20382;-81
2023/01/14 12:25:29;;;;;;;4.22;2.20;;;;;;;;;;5072043;28;20411;-81
2023/01/14 12:28:05;;;;;;;4.93;1.80;;;;;;;;;;5071741;28;20390;-82
2023/01/14 12:30:39;;;;;;;3.35;1.45;;;;;;;;;;5071990;28;20404;-81
2023/01/14 12:33:14;;;;;;;5.30;1.60;;;;;;;;;;5062972;28;20412;-82
2023/01/14 12:35:40;;;;;;;4.15;1.98;;;;;;;;;;5067463;28;20948;-82
2023/01/14 12:45:41;;;;;;;3.83;1.50;;;;;;;;;;5071792;28;20383;-82
2023/01/14 12:46:30;;;;;;;4.88;2.13;;;;;;;;;;5071827;28;20425;-84
2023/01/14 12:48:58;;;;;;;4.40;1.70;;;;;;;;;;5058681;28;20401;-82
2023/01/14 12:51:26;;;;;;;5.10;1.70;;;;;;;;;;5043726;28;20428;-86
2023/01/14 12:53:52;;;;;;;3.75;1.48;;;;;;;;;;5049280;28;20404;-84
2023/01/14 12:56:38;;;;;;;5.07;1.80;;;;;;;;;;5037767;28;20471;-84
2023/01/14 12:59:25;;;;;;;2.92;1.48;;;;;;;;;;5059373;28;20461;-84
2023/01/14 13:02:17;;;;;;;3.70;1.83;;;;;;;;;;5062068;28;20386;-82
2023/01/14 13:04:50;;;;;;;3.42;1.52;;;;;;;;;;5053639;28;20387;-85
2023/01/14 13:07:24;;;;;;;4.35;2.00;;;;;;;;;;5066538;28;20452;-84
2023/01/14 13:09:52;;;;;;;3.92;1.85;;;;;;;;;;5041055;28;20402;-84
2023/01/14 13:12:23;;;;;;;4.20;2.00;;;;;;;;;;5071860;28;20404;-83
2023/01/14 13:14:53;;;;;;;7.30;4.10;;;;;;;;;;5071934;28;20375;-84
2023/01/14 13:17:25;;;;;;;6.78;3.72;;;;;;;;;;5070658;28;20506;-84
2023/01/14 13:19:53;;;;;;;4.05;1.90;;;;;;;;;;5071426;28;20398;-84
2023/01/14 13:22:39;;;;;;;3.40;1.70;;;;;;;;;;5069592;28;20378;-84
2023/01/14 13:25:06;;;;;;;5.03;1.77;;;;;;;;;;5064037;28;20391;-84
2023/01/14 13:27:39;;;;;;;4.22;1.42;;;;;;;;;;5052889;28;20383;-84
2023/01/14 13:30:18;;;;;;;2.97;1.77;;;;;;;;;;5059926;28;20504;-84
2023/01/14 13:32:53;;;;;;;4.13;1.85;;;;;;;;;;5072377;28;20506;-84
2023/01/14 13:35:22;;;;;;;4.63;1.88;;;;;;;;;;5075570;28;20856;-84
2023/01/14 13:37:52;;;;;;;2.55;1.95;;;;;;;;;;5052239;28;20390;-84
2023/01/14 13:40:19;;;;;;;3.28;1.60;;;;;;;;;;5066909;28;20376;-83
2023/01/14 13:42:45;;;;;;;2.78;1.20;;;;;;;;;;5057544;28;20381;-84
2023/01/14 13:45:22;;;;;;;3.13;1.48;;;;;;;;;;5055366;28;20381;-84
2023/01/14 13:47:49;;;;;;;3.17;1.70;;;;;;;;;;5069361;28;20412;-84
2023/01/14 13:50:24;;;;;;;3.92;1.90;;;;;;;;;;5036960;28;20946;-85
2023/01/14 13:52:54;;;;;;;3.22;1.80;;;;;;;;;;5058112;28;20419;-84
2023/01/14 13:55:22;;;;;;;3.85;1.73;;;;;;;;;;5057527;28;20388;-84
2023/01/14 13:57:51;;;;;;;2.42;1.52;;;;;;;;;;5075156;28;20374;-84
2023/01/14 14:00:20;;;;;;;3.55;1.40;;;;;;;;;;5049052;28;20790;-84
2023/01/14 14:02:50;;;;;;;2.97;1.40;;;;;;;;;;5065695;28;20397;-84
2023/01/14 14:05:16;;;;;;;4.53;1.60;;;;;;;;;;5049249;28;20391;-83
2023/01/14 14:07:45;;;;;;;4.55;2.05;;;;;;;;;;5056978;28;20475;-84
2023/01/14 14:10:13;;;;;;;2.65;1.92;;;;;;;;;;5074652;28;20471;-84
2023/01/14 14:15:27;;;;;;;4.05;1.90;;;;;;;;;;5065721;28;20371;-84
2023/01/14 14:17:57;;;;;;;4.28;1.58;;;;;;;;;;5064584;28;20372;-84
2023/01/14 14:20:25;;;;;;;3.30;1.30;;;;;;;;;;5073028;28;20380;-84
2023/01/14 14:22:57;;;;;;;2.90;1.40;;;;;;;;;;5062544;28;20388;-84
2023/01/14 14:25:30;;;;;;;4.78;1.88;;;;;;;;;;5060598;28;20381;-84
2023/01/14 14:27:57;;;;;;;4.35;2.00;;;;;;;;;;5074328;28;20378;-84
2023/01/14 14:30:31;;;;;;;3.38;2.05;;;;;;;;;;5074412;28;20403;-84
2023/01/14 14:32:57;;;;;;;4.30;2.00;;;;;;;;;;5074411;28;20406;-84
2023/01/14 14:35:23;;;;;;;4.00;1.80;;;;;;;;;;5054510;28;20378;-84
2023/01/14 14:37:54;;;;;;;2.53;1.70;;;;;;;;;;5073509;28;20382;-84
2023/01/14 14:40:36;;;;;;;2.47;1.50;;;;;;;;;;5074266;28;20460;-84
2023/01/14 14:43:02;;;;;;;3.05;1.50;;;;;;;;;;5055955;28;20379;-84
2023/01/14 14:45:30;;;;;;;3.33;1.58;;;;;;;;;;5073706;28;20429;-84
2023/01/14 14:47:56;;;;;;;2.92;1.30;;;;;;;;;;5069786;28;20847;-84
2023/01/14 14:50:33;;;;;;;2.45;1.30;;;;;;;;;;5064560;28;20383;-84
2023/01/14 14:52:59;;;;;;;3.08;1.30;;;;;;;;;;5052102;28;20406;-84
2023/01/14 14:55:27;;;;;;;4.55;2.47;;;;;;;;;;5046147;28;20745;-84
2023/01/14 14:57:53;;;;;;;3.50;1.40;;;;;;;;;;5073912;28;20806;-84
2023/01/14 15:00:21;;;;;;;3.92;1.95;;;;;;;;;;5071096;28;20476;-84
2023/01/14 15:02:54;;;;;;;3.93;1.60;;;;;;;;;;5068014;28;20380;-84
2023/01/14 15:05:25;;;;;;;3.58;1.75;;;;;;;;;;5059730;28;20380;-83
2023/01/14 15:07:52;;;;;;;3.00;1.58;;;;;;;;;;5048424;28;20984;-84
2023/01/14 15:10:19;;;;;;;5.60;1.80;;;;;;;;;;5055888;28;20402;-84
2023/01/14 15:12:45;;;;;;;3.60;1.80;;;;;;;;;;5073765;28;20404;-84
2023/01/14 15:15:32;;;;;;;2.45;1.48;;;;;;;;;;5073608;28;20425;-83
2023/01/14 15:18:18;;;;;;;2.57;1.67;;;;;;;;;;5063851;28;20453;-84
2023/01/14 15:20:45;;;;;;;5.60;2.10;;;;;;;;;;5070769;28;20444;-84
2023/01/14 15:23:14;;;;;;;3.58;1.80;;;;;;;;;;5073644;28;20388;-84
2023/01/14 15:25:40;;;;;;;2.77;1.60;;;;;;;;;;5070477;28;20449;-84
2023/01/14 15:28:06;;;;;;;3.15;1.60;;;;;;;;;;5062410;28;20394;-84